Jackson Hole Airport Jackson US
ICAO: KJAC
IATA: JAC
Category: Medium
Scheduled Services: Yes

Elevation: 6451 ft
TransAlt. 18000 ft.

Airport Communications:
ATIS:120.625
AWOS 3:135.175
SALT LAKE CNTR:133.25
CTAF:118.075
GND:124.55
CASPER RDO:122.05
TWR:118.075
UNICOM:122.95

KJAC Zoom In..

Runways:

(A) RW 01 length 6300 ft width 150 ft
---- / hdg 7

(B) RW 19 length 6300 ft width 150 ft
ILS 109.10 / hdg 187

Location; KJAC
Day. 22 / Time. 03.56 Zulu
* Altimeter: 30.17
* Temperature: -17° c. -1.4°f.
* Wind from: 020° Speed 05 kn.
Dewpoint: -18° c.
Visibility: 10 Statute Miles.
Clouds: Clear (automated report).

KJAC 220356Z 02005KT 10SM CLR M17/M18 A3017 RMK AO2 SLP333 T11671183


Wind From 020°
Speed 05 kn.

jpsM music video
CHECK IT OUT

jpsM - It Moves..

 
jpsmedia.com for Web Design  worldairports.se 2018   terms of use